Time;durP1;ratioP1;P1;durP2;ratioP2;P2;SDS_P1;SDS_P2;PMS_P1;PMS_P2;Temp;Humidity;BMP_temperature;BMP_pressure;BME280_temperature;BME280_humidity;BME280_pressure;Samples;Min_cycle;Max_cycle;Signal;HPM_P1;HPM_P2
2023/11/16 00:00:33;;;;;;;13.93;9.63;;;;;;;7.06;100.00;100191.18;1456688;89;21441;-82
2023/11/16 00:03:01;;;;;;;16.43;11.07;;;;;;;7.09;100.00;100196.67;1456167;89;21455;-83
2023/11/16 00:05:27;;;;;;;12.87;9.10;;;;;;;7.11;100.00;100198.20;1460761;89;21592;-82
2023/11/16 00:07:55;;;;;;;15.33;10.47;;;;;;;7.10;100.00;100191.25;1452984;89;21486;-83
2023/11/16 00:10:24;;;;;;;12.73;9.77;;;;;;;7.08;100.00;100193.20;1455789;90;21324;-82
2023/11/16 00:12:50;;;;;;;14.20;9.23;;;;;;;7.03;100.00;100187.98;1451432;90;21556;-82
2023/11/16 00:15:16;;;;;;;17.90;9.73;;;;;;;7.01;100.00;100194.68;1451385;90;21926;-82
2023/11/16 00:17:42;;;;;;;13.57;8.27;;;;;;;6.97;100.00;100203.80;1454396;90;21567;-84
2023/11/16 00:20:12;;;;;;;12.63;9.07;;;;;;;6.93;100.00;100203.70;1451559;89;21412;-83
2023/11/16 00:22:38;;;;;;;16.17;10.50;;;;;;;6.90;100.00;100210.53;1450929;90;21324;-82
2023/11/16 00:25:05;;;;;;;23.50;12.80;;;;;;;6.89;100.00;100214.14;1452652;90;21545;-82
2023/11/16 00:27:33;;;;;;;19.93;12.30;;;;;;;6.87;100.00;100215.57;1445803;90;21591;-82
2023/11/16 00:30:00;;;;;;;16.73;11.60;;;;;;;6.88;100.00;100217.26;1448129;90;21464;-83
2023/11/16 00:32:26;;;;;;;26.50;15.30;;;;;;;6.88;100.00;100219.06;1455114;90;21355;-83
2023/11/16 00:34:53;;;;;;;21.43;11.93;;;;;;;6.88;100.00;100226.95;1455892;90;22390;-83
2023/11/16 00:37:19;;;;;;;49.30;22.57;;;;;;;6.82;100.00;100226.13;1448285;90;21361;-82
2023/11/16 00:39:47;;;;;;;40.27;18.83;;;;;;;6.80;100.00;100232.84;1455549;90;21375;-82
2023/11/16 00:42:13;;;;;;;14.80;9.27;;;;;;;6.78;100.00;100225.55;1444094;90;22649;-82
2023/11/16 00:44:40;;;;;;;13.63;8.47;;;;;;;6.72;100.00;100236.10;1439208;90;21901;-82
2023/11/16 00:47:07;;;;;;;13.47;8.17;;;;;;;6.66;100.00;100239.24;1447553;90;21479;-83
2023/11/16 00:49:34;;;;;;;13.17;8.23;;;;;;;6.60;100.00;100241.07;1455602;90;22263;-83
2023/11/16 00:52:01;;;;;;;14.90;9.00;;;;;;;6.56;100.00;100242.30;1456142;90;21405;-83
2023/11/16 00:54:27;;;;;;;13.83;8.80;;;;;;;6.52;100.00;100241.69;1448786;90;21345;-82
2023/11/16 00:56:53;;;;;;;13.83;8.83;;;;;;;6.48;100.00;100235.52;1448485;89;21905;-83
2023/11/16 00:59:20;;;;;;;10.97;7.77;;;;;;;6.44;100.00;100241.97;1443575;90;21339;-82
2023/11/16 01:01:47;;;;;;;10.73;7.73;;;;;;;6.41;100.00;100238.28;1450741;90;21449;-83
2023/11/16 01:04:13;;;;;;;11.80;7.33;;;;;;;6.40;100.00;100244.02;1447106;90;21494;-83
2023/11/16 01:06:40;;;;;;;12.83;7.47;;;;;;;6.34;100.00;100248.47;1456716;89;21390;-82
2023/11/16 01:09:07;;;;;;;12.90;7.30;;;;;;;6.27;100.00;100252.08;1459463;89;22608;-81
2023/11/16 01:11:36;;;;;;;13.07;7.97;;;;;;;6.16;100.00;100254.73;1387058;89;22120;-82
2023/11/16 01:14:02;;;;;;;11.63;7.97;;;;;;;6.05;100.00;100255.59;1538026;89;21279;-81
2023/11/16 01:16:40;;;;;;;11.37;8.27;;;;;;;5.96;100.00;100245.83;1387366;88;21412;-81
2023/11/16 01:19:04;;;;;;;11.93;7.00;;;;;;;5.91;100.00;100254.99;1532794;89;21712;-82
2023/11/16 01:21:30;;;;;;;11.87;6.20;;;;;;;5.84;100.00;100260.73;1418697;89;22417;-83
2023/11/16 01:24:02;;;;;;;14.87;7.40;;;;;;;5.77;100.00;100256.91;1463425;89;21397;-81
2023/11/16 01:26:26;;;;;;;11.50;7.00;;;;;;;5.71;100.00;100269.21;1458799;88;21455;-83
2023/11/16 01:29:01;;;;;;;9.13;6.40;;;;;;;5.68;100.00;100270.77;1460580;88;21641;-81
2023/11/16 01:31:20;;;;;;;12.03;6.97;;;;;;;5.65;100.00;100273.15;1457890;88;21516;-80
2023/11/16 01:33:47;;;;;;;11.40;6.13;;;;;;;5.62;100.00;100276.50;1455566;89;22240;-82
2023/11/16 01:36:14;;;;;;;11.00;7.77;;;;;;;5.57;100.00;100270.77;1457564;89;21511;-81
2023/11/16 01:38:41;;;;;;;9.97;6.83;;;;;;;5.57;100.00;100273.39;1467295;88;21345;-82
2023/11/16 01:41:10;;;;;;;11.93;7.20;;;;;;;5.55;100.00;100274.84;1459073;89;22291;-82
2023/11/16 01:43:37;;;;;;;13.43;6.13;;;;;;;5.55;100.00;100280.54;1450185;89;21397;-82
2023/11/16 01:46:08;;;;;;;10.33;6.03;;;;;;;5.56;100.00;100279.60;1462876;89;21596;-85
2023/11/16 01:48:42;;;;;;;13.23;6.77;;;;;;;5.57;100.00;100281.27;1451591;89;21678;-86
2023/11/16 01:51:11;;;;;;;8.63;5.83;;;;;;;5.60;100.00;100279.71;1433233;89;21506;-86
2023/11/16 01:53:44;;;;;;;10.87;6.03;;;;;;;5.62;100.00;100280.44;1390041;89;21495;-83
2023/11/16 01:56:15;;;;;;;7.97;6.03;;;;;;;5.63;100.00;100280.78;1449006;89;21397;-85
2023/11/16 01:58:40;;;;;;;7.63;5.47;;;;;;;5.66;100.00;100287.11;1450974;89;21582;-86
2023/11/16 02:01:09;;;;;;;10.43;5.77;;;;;;;5.69;100.00;100285.55;1460823;89;21449;-85
2023/11/16 02:03:35;;;;;;;9.20;5.67;;;;;;;5.71;100.00;100285.45;1460108;88;21484;-86
2023/11/16 02:06:04;;;;;;;9.30;5.80;;;;;;;5.74;100.00;100282.58;1462202;89;21582;-86
2023/11/16 02:08:31;;;;;;;9.77;6.40;;;;;;;5.76;100.00;100285.93;1451538;88;21493;-85
2023/11/16 02:10:58;;;;;;;10.10;6.53;;;;;;;5.74;100.00;100285.20;1445365;90;21367;-82
2023/11/16 02:13:25;;;;;;;9.10;6.40;;;;;;;5.68;100.00;100290.94;1481627;90;21273;-82
2023/11/16 02:15:55;;;;;;;13.40;6.30;;;;;;;5.61;100.00;100290.56;1390515;90;21367;-82
2023/11/16 02:18:23;;;;;;;13.17;6.50;;;;;;;5.59;100.00;100287.23;1378125;90;22204;-81
2023/11/16 02:20:49;;;;;;;10.63;6.30;;;;;;;5.53;100.00;100286.41;1384253;89;21453;-85
2023/11/16 02:23:19;;;;;;;9.43;5.90;;;;;;;5.46;100.00;100286.50;1447828;90;21426;-86
2023/11/16 02:25:49;;;;;;;14.38;6.25;;;;;;;5.36;100.00;100287.70;1452075;90;21397;-85
2023/11/16 02:28:19;;;;;;;10.37;5.77;;;;;;;5.29;100.00;100278.61;1452505;89;21538;-85
2023/11/16 02:30:46;;;;;;;9.77;6.13;;;;;;;5.26;100.00;100287.55;1453601;89;21419;-86
2023/11/16 02:33:13;;;;;;;8.37;5.43;;;;;;;5.21;100.00;100288.39;1452909;89;21780;-86
2023/11/16 02:35:39;;;;;;;11.10;6.43;;;;;;;5.20;100.00;100294.58;1452076;90;22527;-85
2023/11/16 02:38:12;;;;;;;12.87;6.23;;;;;;;5.19;100.00;100298.16;1456412;90;22511;-86
2023/11/16 02:40:37;;;;;;;;;;;;;;;5.16;100.00;100297.91;1431484;90;22440;-86
2023/11/16 02:43:04;;;;;;;11.17;6.07;;;;;;;5.13;100.00;100300.77;1452190;90;20358;-85
2023/11/16 02:45:32;;;;;;;11.30;7.37;;;;;;;5.06;100.00;100305.27;1443477;90;21391;-85
2023/11/16 02:47:59;;;;;;;8.33;6.73;;;;;;;4.95;100.00;100306.93;1452011;90;22593;-87
2023/11/16 02:50:26;;;;;;;14.97;6.27;;;;;;;4.88;100.00;100313.56;1452436;90;21368;-86
2023/11/16 02:52:53;;;;;;;9.53;5.60;;;;;;;4.84;100.00;100316.55;1455782;90;21397;-85
2023/11/16 02:55:23;;;;;;;8.50;5.60;;;;;;;4.80;100.00;100312.46;1450735;90;21405;-85
2023/11/16 02:57:49;;;;;;;10.10;6.03;;;;;;;4.76;100.00;100311.86;1445459;90;21441;-85
2023/11/16 03:00:15;;;;;;;8.83;5.87;;;;;;;4.75;100.00;100318.06;1444323;90;22263;-83
2023/11/16 03:02:49;;;;;;;9.33;6.97;;;;;;;4.71;100.00;100323.16;1456351;90;21479;-80
2023/11/16 03:05:17;;;;;;;8.77;6.67;;;;;;;4.69;100.00;100327.66;1454380;90;21421;-81
2023/11/16 03:07:44;;;;;;;17.33;7.63;;;;;;;4.65;100.00;100335.41;1452875;89;21404;-84
2023/11/16 03:10:13;;;;;;;12.33;8.80;;;;;;;4.59;100.00;100343.72;1446951;90;21538;-85
2023/11/16 03:12:41;;;;;;;12.70;7.63;;;;;;;4.55;100.00;100339.66;1451965;90;21397;-85
2023/11/16 03:15:09;;;;;;;13.60;7.80;;;;;;;4.50;100.00;100344.74;1448351;90;21641;-86
2023/11/16 03:17:43;;;;;;;11.20;6.50;;;;;;;4.49;100.00;100345.70;1461359;89;21420;-85
2023/11/16 03:20:15;;;;;;;12.03;6.87;;;;;;;4.49;100.00;100343.55;1391311;90;21391;-86
2023/11/16 03:22:41;;;;;;;8.67;5.40;;;;;;;4.48;100.00;100349.24;1450469;89;21398;-85
2023/11/16 03:25:08;;;;;;;9.80;7.00;;;;;;;4.49;100.00;100356.19;1450636;90;21464;-86
2023/11/16 03:27:35;;;;;;;9.97;5.87;;;;;;;4.53;100.00;100359.41;1455836;90;21346;-86
2023/11/16 03:30:03;;;;;;;12.63;6.93;;;;;;;4.55;100.00;100358.00;1458309;90;21487;-86
2023/11/16 03:32:30;;;;;;;13.17;7.33;;;;;;;4.55;100.00;100358.84;1455556;90;21368;-86
2023/11/16 03:34:56;;;;;;;10.73;6.80;;;;;;;4.56;100.00;100355.73;1459848;89;21323;-84
2023/11/16 03:37:23;;;;;;;15.43;7.43;;;;;;;4.51;100.00;100357.36;1439613;90;21389;-85
2023/11/16 03:39:49;;;;;;;10.33;6.43;;;;;;;4.48;100.00;100350.55;1451540;90;22440;-82
2023/11/16 03:42:16;;;;;;;10.60;7.20;;;;;;;4.46;100.00;100352.47;1453495;89;21449;-81
2023/11/16 03:44:49;;;;;;;10.33;5.53;;;;;;;4.43;100.00;100354.00;1452306;90;21493;-82
2023/11/16 03:47:11;;;;;;;9.03;6.03;;;;;;;4.40;100.00;100375.64;1451706;89;21493;-83
2023/11/16 03:49:37;;;;;;;8.63;5.20;;;;;;;4.35;100.00;100389.09;1459410;90;21542;-85
2023/11/16 03:52:04;;;;;;;9.53;4.80;;;;;;;4.32;100.00;100389.30;1453791;90;21530;-85
2023/11/16 03:54:31;;;;;;;7.73;4.97;;;;;;;4.30;100.00;100389.40;1447614;90;22322;-85
2023/11/16 03:56:57;;;;;;;11.03;6.87;;;;;;;4.28;100.00;100390.45;1451426;90;22429;-85
2023/11/16 03:59:24;;;;;;;14.97;12.00;;;;;;;4.29;100.00;100390.36;1445922;90;22344;-81
2023/11/16 04:01:51;;;;;;;9.77;5.90;;;;;;;4.31;100.00;100402.02;1453476;90;21949;-83
2023/11/16 04:04:19;;;;;;;7.60;6.20;;;;;;;4.29;100.00;100407.86;1383956;89;22161;-81
2023/11/16 04:06:46;;;;;;;10.93;8.83;;;;;;;4.25;100.00;100398.53;1378866;90;21400;-81
2023/11/16 04:09:14;;;;;;;7.67;5.93;;;;;;;4.22;100.00;100402.20;1383798;89;21331;-81
2023/11/16 04:11:42;;;;;;;6.00;5.23;;;;;;;4.21;100.00;100407.55;1378225;90;21332;-81
2023/11/16 04:14:10;;;;;;;14.20;7.03;;;;;;;4.20;100.00;100404.11;1384118;90;21244;-83
2023/11/16 04:16:36;;;;;;;8.03;5.93;;;;;;;4.18;100.00;100409.09;1535482;89;21214;-80
2023/11/16 04:19:09;;;;;;;8.03;5.57;;;;;;;4.18;100.00;100405.16;1378978;90;22212;-82
2023/11/16 04:21:36;;;;;;;8.23;5.37;;;;;;;4.17;100.00;100408.70;1382120;89;21339;-81
2023/11/16 04:24:05;;;;;;;7.27;5.97;;;;;;;4.14;100.00;100403.67;1534594;89;21243;-81
2023/11/16 04:26:36;;;;;;;7.27;5.20;;;;;;;4.10;100.00;100402.23;1376954;90;21384;-81
2023/11/16 04:29:00;;;;;;;8.57;5.97;;;;;;;4.03;100.00;100401.34;1532618;89;21517;-82
2023/11/16 04:31:27;;;;;;;7.33;5.40;;;;;;;3.98;100.00;100396.89;1377052;89;22117;-82
2023/11/16 04:33:57;;;;;;;9.77;6.60;;;;;;;3.91;100.00;100404.78;1379332;89;21405;-82
2023/11/16 04:36:28;;;;;;;9.80;6.50;;;;;;;3.87;100.00;100403.81;1377178;89;21309;-82
2023/11/16 04:38:55;;;;;;;;;;;;;;;3.83;100.00;100413.67;1532074;89;21493;-81
2023/11/16 04:41:21;;;;;;;7.53;4.37;;;;;;;3.79;100.00;100412.18;1468026;89;20254;-80
2023/11/16 04:43:49;;;;;;;8.77;4.33;;;;;;;3.78;100.00;100417.06;1379031;89;21414;-82
2023/11/16 04:46:16;;;;;;;9.17;4.90;;;;;;;3.76;100.00;100417.63;1534893;89;21362;-83
2023/11/16 04:48:43;;;;;;;8.80;5.20;;;;;;;3.73;100.00;100426.52;1385685;90;21451;-82
2023/11/16 04:51:17;;;;;;;7.10;5.23;;;;;;;3.72;100.00;100431.88;1535456;89;22062;-81
2023/11/16 04:53:44;;;;;;;6.47;5.30;;;;;;;3.68;100.00;100436.94;1465150;90;21375;-83
2023/11/16 04:56:11;;;;;;;8.33;5.40;;;;;;;3.57;100.00;100441.13;1456477;90;22469;-83
2023/11/16 04:58:38;;;;;;;8.97;5.87;;;;;;;3.50;100.00;100446.86;1458116;89;21293;-83
2023/11/16 05:01:05;;;;;;;11.90;5.70;;;;;;;3.42;100.00;100447.83;1453148;90;21786;-82
2023/11/16 05:03:31;;;;;;;8.90;6.70;;;;;;;3.40;100.00;100449.26;1445581;89;21501;-84
2023/11/16 05:05:57;;;;;;;7.57;5.37;;;;;;;3.38;100.00;100455.05;1454223;90;21663;-83
2023/11/16 05:08:25;;;;;;;11.47;6.00;;;;;;;3.35;100.00;100457.87;1520294;90;21309;-83
2023/11/16 05:10:53;;;;;;;14.23;6.93;;;;;;;3.36;100.00;100458.23;1535424;90;21324;-80
2023/11/16 05:13:22;;;;;;;13.20;6.60;;;;;;;3.34;100.00;100467.98;1517487;90;21287;-80
2023/11/16 05:15:49;;;;;;;6.97;5.27;;;;;;;3.34;100.00;100467.98;1428899;90;21368;-81
2023/11/16 05:18:16;;;;;;;14.20;6.43;;;;;;;3.31;100.00;100467.70;1448533;89;22148;-80
2023/11/16 05:20:43;;;;;;;8.33;5.60;;;;;;;3.28;100.00;100471.83;1449978;90;21471;-80
2023/11/16 05:23:09;;;;;;;7.83;5.83;;;;;;;3.21;100.00;100477.55;1449953;89;22111;-79
2023/11/16 05:25:36;;;;;;;8.00;5.40;;;;;;;3.15;100.00;100477.48;1456821;90;21382;-80
2023/11/16 05:28:04;;;;;;;6.43;4.70;;;;;;;3.11;100.00;100485.99;1450503;90;21405;-85
2023/11/16 05:30:36;;;;;;;9.20;5.50;;;;;;;3.03;100.00;100481.72;1458278;89;21449;-85
2023/11/16 05:33:03;;;;;;;9.07;6.17;;;;;;;2.99;100.00;100488.06;1447311;90;22095;-85
2023/11/16 05:35:29;;;;;;;11.63;7.37;;;;;;;3.01;100.00;100491.42;1452553;90;22215;-85
2023/11/16 05:37:56;;;;;;;10.63;6.30;;;;;;;3.00;100.00;100497.61;1453439;89;22068;-85
2023/11/16 05:40:26;;;;;;;9.23;7.20;;;;;;;3.00;100.00;100493.69;1446277;90;22999;-82
2023/11/16 05:42:51;;;;;;;12.33;7.90;;;;;;;3.04;100.00;100496.93;1452877;89;21515;-85
2023/11/16 05:45:19;;;;;;;13.03;7.90;;;;;;;3.04;100.00;100496.93;1454863;90;21567;-84
2023/11/16 05:47:45;;;;;;;9.60;6.60;;;;;;;3.05;100.00;100493.38;1442876;90;22100;-84
2023/11/16 05:50:13;;;;;;;14.33;8.90;;;;;;;3.05;100.00;100495.55;1456232;90;22238;-84
2023/11/16 05:52:39;;;;;;;25.03;13.40;;;;;;;3.04;100.00;100499.07;1453508;90;22308;-84
2023/11/16 05:55:06;;;;;;;16.53;9.27;;;;;;;3.02;100.00;100503.58;1439940;90;22092;-83
2023/11/16 05:57:32;;;;;;;17.53;9.23;;;;;;;3.02;100.00;100515.35;1454425;89;22081;-83
2023/11/16 06:00:01;;;;;;;14.00;8.27;;;;;;;3.03;100.00;100517.02;1452219;90;22345;-82
2023/11/16 06:02:27;;;;;;;20.10;9.17;;;;;;;3.06;100.00;100515.52;1453628;89;22124;-81
2023/11/16 06:04:54;;;;;;;13.90;8.60;;;;;;;3.12;100.00;100507.27;1451600;89;22058;-80
2023/11/16 06:07:21;;;;;;;10.20;7.80;;;;;;;3.15;100.00;100514.92;1448631;89;21443;-83
2023/11/16 06:09:47;;;;;;;12.40;8.17;;;;;;;3.15;100.00;100514.92;1451247;90;21485;-81
2023/11/16 06:12:15;;;;;;;15.37;8.27;;;;;;;3.23;100.00;100523.59;1449358;90;21376;-82
2023/11/16 06:14:41;;;;;;;11.40;8.37;;;;;;;3.27;100.00;100521.62;1453688;89;21516;-83
2023/11/16 06:17:08;;;;;;;12.87;6.83;;;;;;;3.27;100.00;100521.62;1455857;89;22234;-83
2023/11/16 06:19:34;;;;;;;13.23;8.27;;;;;;;3.37;100.00;100525.33;1458053;90;22080;-82
2023/11/16 06:22:00;;;;;;;10.60;7.63;;;;;;;3.37;100.00;100518.80;1446944;90;21420;-78
2023/11/16 06:24:26;;;;;;;21.67;8.20;;;;;;;3.47;100.00;100528.18;1452707;89;22351;-80
2023/11/16 06:26:53;;;;;;;12.57;7.63;;;;;;;3.57;100.00;100539.27;1455080;90;21546;-80
2023/11/16 06:29:21;;;;;;;10.23;7.47;;;;;;;3.69;100.00;100545.95;1448325;90;21522;-78
2023/11/16 06:31:47;;;;;;;12.20;7.43;;;;;;;3.82;100.00;100548.11;1450745;90;21501;-80
2023/11/16 06:34:14;;;;;;;12.77;7.23;;;;;;;3.95;100.00;100543.75;1454772;90;21471;-78
2023/11/16 06:36:41;;;;;;;16.23;7.67;;;;;;;4.07;100.00;100548.16;1450357;90;21287;-79
2023/11/16 06:39:07;;;;;;;8.90;6.83;;;;;;;4.18;100.00;100551.85;1450418;89;21442;-78
2023/11/16 06:41:35;;;;;;;6.90;6.10;;;;;;;4.27;100.00;100548.61;1459014;89;22350;-79
2023/11/16 06:44:05;;;;;;;16.47;8.50;;;;;;;4.34;100.00;100551.16;1453354;89;21381;-79
2023/11/16 06:46:33;;;;;;;13.73;9.03;;;;;;;4.45;100.00;100549.95;1534412;90;22093;-80
2023/11/16 06:49:01;;;;;;;11.57;7.07;;;;;;;4.59;100.00;100548.18;1378695;90;21380;-79
2023/11/16 06:51:28;;;;;;;11.50;6.10;;;;;;;4.75;100.00;100551.42;1382357;90;21346;-80
2023/11/16 06:53:54;;;;;;;10.93;6.93;;;;;;;4.91;100.00;100555.94;1379578;89;21339;-78
2023/11/16 06:56:20;;;;;;;8.33;6.87;;;;;;;5.09;100.00;100551.64;1372709;90;21251;-80
2023/11/16 06:58:47;;;;;;;12.63;8.90;;;;;;;5.27;100.00;100555.59;1373225;90;21332;-80
2023/11/16 07:01:13;;;;;;;14.37;11.27;;;;;;;5.45;100.00;100562.61;1379219;90;22190;-79
2023/11/16 07:03:39;;;;;;;23.33;18.90;;;;;;;5.61;100.00;100561.00;1379404;89;21451;-79
2023/11/16 07:06:07;;;;;;;29.03;22.73;;;;;;;5.75;100.00;100566.55;1379712;90;21363;-78
2023/11/16 07:08:34;;;;;;;24.80;20.00;;;;;;;5.91;100.00;100572.36;1383387;90;21416;-80
2023/11/16 07:11:00;;;;;;;26.83;17.23;;;;;;;6.11;100.00;100582.73;1518795;90;21316;-77
2023/11/16 07:13:26;;;;;;;29.23;20.40;;;;;;;6.31;100.00;100585.17;1379511;90;21384;-79
2023/11/16 07:15:52;;;;;;;30.17;20.13;;;;;;;6.54;100.00;100580.78;1379875;90;21265;-77
2023/11/16 07:18:21;;;;;;;34.70;26.07;;;;;;;6.72;100.00;100585.92;1379782;90;21317;-79
2023/11/16 07:20:48;;;;;;;24.90;17.10;;;;;;;6.90;100.00;100595.49;1376392;89;21318;-79
2023/11/16 07:23:15;;;;;;;26.07;18.80;;;;;;;6.99;100.00;100589.98;1384303;89;21431;-79
2023/11/16 07:25:44;;;;;;;29.60;20.13;;;;;;;7.18;100.00;100581.00;1464576;90;21382;-79
2023/11/16 07:28:11;;;;;;;29.07;22.10;;;;;;;7.42;100.00;100579.55;1449700;89;21367;-80
2023/11/16 07:30:38;;;;;;;35.80;24.70;;;;;;;7.63;100.00;100574.32;1454470;90;21397;-79
2023/11/16 07:33:04;;;;;;;30.33;21.20;;;;;;;7.81;100.00;100571.14;1448797;90;21559;-79
2023/11/16 07:35:33;;;;;;;20.33;14.37;;;;;;;7.93;100.00;100562.22;1445482;90;21405;-80
2023/11/16 07:38:00;;;;;;;14.57;10.13;;;;;;;8.02;100.00;100575.11;1455676;90;21675;-79
2023/11/16 07:40:26;;;;;;;23.13;10.97;;;;;;;8.06;100.00;100583.97;1455930;90;21376;-80
2023/11/16 07:42:53;;;;;;;13.13;9.50;;;;;;;8.11;100.00;100582.25;1445363;90;21360;-80
2023/11/16 07:45:19;;;;;;;13.57;9.10;;;;;;;8.15;100.00;100581.05;1449975;90;21360;-79
2023/11/16 07:47:50;;;;;;;11.83;8.20;;;;;;;8.16;100.00;100588.47;1454682;90;21554;-79
2023/11/16 07:50:18;;;;;;;9.83;7.23;;;;;;;8.16;100.00;100593.74;1453331;89;22271;-79
2023/11/16 07:52:44;;;;;;;10.30;6.33;;;;;;;8.12;100.00;100587.41;1451882;90;21524;-79
2023/11/16 07:55:25;;;;;;;9.17;6.77;;;;;;;8.14;100.00;100578.90;1447638;90;21368;-80
2023/11/16 07:57:50;;;;;;;6.70;5.37;;;;;;;8.18;100.00;100584.74;1453282;89;22404;-80
2023/11/16 08:00:26;;;;;;;7.17;5.20;;;;;;;8.19;100.00;100578.98;1456647;89;21405;-79
2023/11/16 08:05:37;;;;;;;7.23;5.10;;;;;;;8.41;100.00;100581.52;1451123;90;22419;-79
2023/11/16 08:08:07;;;;;;;6.23;4.53;;;;;;;8.46;100.00;100593.84;1455436;90;21302;-79
2023/11/16 08:10:34;;;;;;;19.37;6.33;;;;;;;8.51;100.00;100596.91;1449001;89;21449;-78
2023/11/16 08:13:00;;;;;;;9.40;5.53;;;;;;;8.54;100.00;100591.37;1429848;90;21562;-79
2023/11/16 08:15:27;;;;;;;8.23;5.97;;;;;;;8.55;100.00;100595.70;1448457;90;21398;-84
2023/11/16 08:17:54;;;;;;;6.03;5.40;;;;;;;8.58;100.00;100599.39;1453651;89;21497;-84
2023/11/16 08:20:28;;;;;;;4.53;3.27;;;;;;;8.62;100.00;100605.23;1457648;90;21562;-84
2023/11/16 08:22:55;;;;;;;7.33;4.87;;;;;;;8.70;100.00;100600.63;1430703;90;21464;-85
2023/11/16 08:25:22;;;;;;;6.37;5.00;;;;;;;8.72;100.00;100600.03;1447792;89;21941;-81
2023/11/16 08:27:51;;;;;;;6.43;5.40;;;;;;;8.74;100.00;100603.34;1455432;89;22478;-79
2023/11/16 08:30:18;;;;;;;5.20;4.00;;;;;;;8.81;100.00;100602.70;1456662;89;22720;-80
2023/11/16 08:32:45;;;;;;;9.77;4.97;;;;;;;8.88;100.00;100601.68;1457067;90;21361;-81
2023/11/16 08:35:13;;;;;;;4.27;3.83;;;;;;;8.98;100.00;100595.97;1460175;90;21346;-80
2023/11/16 08:37:41;;;;;;;5.07;3.57;;;;;;;9.10;100.00;100599.83;1460908;90;21665;-81
2023/11/16 08:40:12;;;;;;;3.62;3.22;;;;;;;9.18;100.00;100594.72;1446730;90;21369;-80
2023/11/16 08:42:43;;;;;;;5.50;3.83;;;;;;;9.33;100.00;100597.33;1456170;89;21501;-83
2023/11/16 08:45:17;;;;;;;5.15;3.55;;;;;;;9.49;100.00;100592.37;1452964;89;21310;-81
2023/11/16 08:47:39;;;;;;;4.25;3.40;;;;;;;9.64;100.00;100588.00;1450755;90;21619;-82
2023/11/16 08:50:06;;;;;;;6.07;3.90;;;;;;;9.74;100.00;100583.55;1450515;90;21449;-82
2023/11/16 08:52:33;;;;;;;9.67;3.70;;;;;;;9.82;100.00;100571.80;1442260;90;21404;-83
2023/11/16 08:55:00;;;;;;;5.30;3.40;;;;;;;9.87;100.00;100569.58;1452352;90;21441;-82
2023/11/16 08:57:26;;;;;;;7.27;4.87;;;;;;;9.92;100.00;100571.29;1447703;90;21375;-83
2023/11/16 09:00:27;;;;;;;4.37;3.00;;;;;;;10.03;100.00;100581.39;1446619;89;21633;-82
2023/11/16 09:02:36;;;;;;;4.30;2.92;;;;;;;10.12;100.00;100577.89;1445713;90;21492;-84
2023/11/16 09:05:01;;;;;;;3.97;2.77;;;;;;;10.19;100.00;100580.34;1455556;90;21434;-84
2023/11/16 09:07:28;;;;;;;4.47;2.57;;;;;;;10.30;100.00;100579.36;1449488;90;21383;-84
2023/11/16 09:09:55;;;;;;;3.73;2.27;;;;;;;10.34;100.00;100578.94;1454469;89;21412;-85
2023/11/16 09:12:22;;;;;;;2.37;2.10;;;;;;;10.44;100.00;100586.84;1446212;89;22293;-85
2023/11/16 09:14:49;;;;;;;2.43;1.97;;;;;;;10.58;100.00;100587.72;1449333;90;21397;-83
2023/11/16 09:17:20;;;;;;;2.80;2.20;;;;;;;10.91;100.00;100582.05;1456790;90;21412;-84
2023/11/16 09:19:50;;;;;;;2.17;1.95;;;;;;;11.73;100.00;100587.27;1448529;90;21339;-79
2023/11/16 09:22:15;;;;;;;3.17;2.10;;;;;;;12.68;100.00;100592.83;1454891;89;21630;-83
2023/11/16 09:24:41;;;;;;;2.73;2.33;;;;;;;13.60;100.00;100593.06;1454575;90;21368;-81
2023/11/16 09:27:07;;;;;;;4.40;2.83;;;;;;;14.37;100.00;100593.60;1454707;90;21412;-83
2023/11/16 09:29:38;;;;;;;4.30;2.98;;;;;;;14.99;100.00;100588.97;1448795;89;21478;-83
2023/11/16 09:32:03;;;;;;;2.83;2.33;;;;;;;15.53;100.00;100575.71;1440301;90;22366;-84
2023/11/16 09:34:29;;;;;;;3.20;2.35;;;;;;;15.90;100.00;100583.50;1440814;90;21538;-84
2023/11/16 09:36:56;;;;;;;2.85;2.30;;;;;;;16.17;100.00;100576.28;1456675;89;21360;-80
2023/11/16 09:39:22;;;;;;;3.02;2.52;;;;;;;16.50;100.00;100570.62;1453595;90;22448;-80
2023/11/16 09:41:49;;;;;;;5.97;2.75;;;;;;;16.88;100.00;100579.41;1455548;90;21369;-81
2023/11/16 09:44:19;;;;;;;5.75;3.47;;;;;;;16.95;100.00;100575.51;1450708;89;21483;-80
2023/11/16 09:46:47;;;;;;;8.17;3.90;;;;;;;16.90;100.00;100580.06;1451961;89;21375;-80
2023/11/16 09:49:16;;;;;;;6.67;4.05;;;;;;;16.93;79.04;100578.04;1447930;90;21537;-79
2023/11/16 09:51:44;;;;;;;4.60;3.05;;;;;;;17.02;78.86;100571.06;1448480;89;21420;-80
2023/11/16 09:54:12;;;;;;;4.20;3.10;;;;;;;17.13;77.70;100571.92;1448867;90;21346;-80
2023/11/16 09:56:43;;;;;;;3.45;2.42;;;;;;;17.03;76.15;100566.05;1455338;90;21546;-80
2023/11/16 09:59:13;;;;;;;;;;;;;;;17.01;74.50;100560.05;1461033;90;21392;-80
2023/11/16 10:01:42;;;;;;;7.92;3.17;;;;;;;17.03;72.93;100556.70;1455164;89;20825;-80
2023/11/16 10:04:10;;;;;;;2.92;2.17;;;;;;;17.30;72.71;100558.34;1451758;90;21441;-81
2023/11/16 10:06:35;;;;;;;3.55;2.83;;;;;;;17.30;72.71;100558.34;1452290;90;21493;-81
2023/11/16 10:09:14;;;;;;;4.95;3.00;;;;;;;17.39;72.91;100553.19;1457950;90;21520;-80
2023/11/16 10:11:38;;;;;;;4.15;2.60;;;;;;;17.27;56.20;100546.69;1454719;90;22552;-80
2023/11/16 10:14:05;;;;;;;3.62;2.58;;;;;;;17.23;55.20;100540.86;1433685;90;21383;-80
2023/11/16 10:16:31;;;;;;;4.53;3.42;;;;;;;17.26;54.53;100547.68;1454624;90;21420;-81
2023/11/16 10:19:06;;;;;;;2.25;1.70;;;;;;;17.30;54.01;100543.62;1454653;90;22384;-80
2023/11/16 10:21:34;;;;;;;4.22;2.22;;;;;;;17.31;53.39;100542.09;1443617;89;21507;-80
2023/11/16 10:24:09;;;;;;;3.42;2.12;;;;;;;17.32;52.95;100529.53;1455764;89;21434;-82
2023/11/16 10:26:35;;;;;;;2.37;1.40;;;;;;;17.43;52.79;100534.39;1457215;90;21524;-82
2023/11/16 10:29:02;;;;;;;3.33;1.65;;;;;;;17.53;52.45;100528.23;1458819;90;21375;-81
2023/11/16 10:31:33;;;;;;;4.30;1.50;;;;;;;17.55;52.17;100540.06;1447697;90;23042;-80
2023/11/16 10:34:05;;;;;;;2.58;1.60;;;;;;;16.87;49.15;100528.30;1447615;90;22522;-79
2023/11/16 10:36:32;;;;;;;3.50;2.30;;;;;;;16.87;49.15;100528.30;1445015;90;21492;-80
2023/11/16 10:38:59;;;;;;;3.12;2.60;;;;;;;16.53;50.64;100538.19;1450873;90;21368;-80
2023/11/16 10:41:27;;;;;;;4.35;2.87;;;;;;;16.06;51.22;100541.18;1450744;89;21635;-79
2023/11/16 10:43:56;;;;;;;3.08;2.05;;;;;;;15.62;51.96;100535.97;1448886;90;21390;-81
2023/11/16 10:46:29;;;;;;;6.10;2.22;;;;;;;15.32;53.26;100534.50;1445749;89;22046;-81
2023/11/16 10:48:56;;;;;;;3.25;1.82;;;;;;;15.09;53.58;100535.80;1449302;89;21472;-82
2023/11/16 10:51:26;;;;;;;3.13;2.30;;;;;;;14.75;53.53;100525.45;1449370;89;21530;-80
2023/11/16 10:53:55;;;;;;;3.08;2.12;;;;;;;14.51;54.10;100528.17;1450194;89;21420;-81
2023/11/16 10:56:21;;;;;;;3.27;2.20;;;;;;;14.37;55.46;100523.88;1453174;90;21545;-81
2023/11/16 10:58:50;;;;;;;4.67;1.90;;;;;;;14.21;55.46;100518.57;1450763;90;21361;-81
2023/11/16 11:01:18;;;;;;;5.20;2.27;;;;;;;13.91;54.87;100510.80;1447304;90;21353;-81
2023/11/16 11:03:50;;;;;;;2.20;1.70;;;;;;;13.65;55.28;100501.66;1460041;90;21361;-81
2023/11/16 11:06:22;;;;;;;3.37;2.30;;;;;;;13.34;55.77;100512.91;1448070;90;22769;-81
2023/11/16 11:08:53;;;;;;;2.77;2.03;;;;;;;13.22;56.60;100510.20;1463899;89;21865;-81
2023/11/16 11:11:27;;;;;;;3.43;2.30;;;;;;;13.02;56.99;100512.31;1452730;90;21500;-81
2023/11/16 11:13:57;;;;;;;3.17;2.00;;;;;;;12.97;57.73;100515.94;1454502;89;21353;-80
2023/11/16 11:16:29;;;;;;;3.17;2.20;;;;;;;12.88;58.25;100516.41;1457895;90;22248;-82
2023/11/16 11:18:57;;;;;;;3.70;2.60;;;;;;;12.76;58.16;100513.71;1456820;90;22848;-81
2023/11/16 11:21:26;;;;;;;4.07;2.90;;;;;;;12.67;58.60;100514.67;1455975;89;21571;-81
2023/11/16 11:24:05;;;;;;;3.97;2.93;;;;;;;12.58;59.46;100516.45;1457872;89;21465;-81
2023/11/16 11:26:48;;;;;;;4.10;3.63;;;;;;;12.54;60.26;100515.91;1464020;90;21331;-81